Latest Coastal Weather Observations for Cape Moreton

IDQ60701

Issued at 5:01 am EST Saturday 23 May 2015 (issued every 10 minutes, with the page automatically refreshed every 10 minutes)

About coastal observations | Map of coastal stations | Coastal observations for QLD | Marine services | Other Formats
Station Details ID: 040043 Name: CAPE MORETON LIGHTHOUSE Lat: -27.03 Lon: 153.47 Height: 99.9 m
Data from the previous 72 hours. | See also: Recent months at Cape Moreton
Date/Time
EST
Temp

°C
Wind Pressure Rain
since 9am
mm
Weather Cloud Vis
km
Sea
Height
m
Swell
Dir
 
Speed
knots
Gust
knots
hPa Trend Height
m
Period
s
Dir
23/05:00am 15.7 SSW 17 22 1018.8 - 0.0 - - - - - - -
23/04:30am 16.1 SSW 19 27 1018.7 - 0.0 - - - - - - -
23/04:00am 16.0 SSW 17 24 1018.4 - 0.0 - - - - - - -
23/03:30am 16.2 SSW 18 27 1018.3 - 0.0 - - - - - - -
23/03:00am 16.2 SSW 15 23 1018.3 - 0.0 - - - - - - -
23/02:30am 16.2 SW 15 21 1018.4 - 0.0 - - - - - - -
23/02:00am 15.8 SW 12 16 1018.5 - 0.0 - - - - - - -
23/01:30am 15.9 SW 14 19 1018.6 - 0.0 - - - - - - -
23/01:00am 15.6 SW 13 21 1018.7 - 0.0 - - - - - - -
23/12:30am 15.3 SW 15 24 1018.5 - 0.0 - - - - - - -
23/12:00am 15.0 SW 14 20 1018.3 - 0.0 - - - - - - -
 
Date/Time
EST
Temp

°C
Wind Pressure Rain
since 9am
mm
Weather Cloud Vis
km
Sea
Height
m
Swell
Dir
 
Speed
knots
Gust
knots
hPa Trend Height
m
Period
s
Dir
22/11:30pm 15.3 SW 15 23 1018.5 - 0.0 - - - - - - -
22/11:00pm 15.3 SW 15 23 1018.4 - 0.0 - - - - - - -
22/10:30pm 15.2 SW 17 22 1018.5 - 0.0 - - - - - - -
22/10:00pm 15.1 SW 16 24 1018.5 - 0.0 - - - - - - -
22/09:30pm 15.3 SW 16 26 1018.4 - 0.0 - - - - - - -
22/09:29pm 15.3 SW 16 26 1018.4 - 0.0 - - - - - - -
22/09:00pm 15.2 SW 11 19 1018.3 - 0.0 - - - - - - -
22/08:30pm 15.3 SW 12 21 1018.1 - 0.0 - - - - - - -
22/08:00pm 15.4 SW 15 22 1017.6 - 0.0 - - - - - - -
22/07:30pm 15.4 SW 14 20 1017.2 - 0.0 - - - - - - -
22/07:00pm 15.5 SW 15 26 1017.0 - 0.0 - - - - - - -
22/06:30pm 15.6 SW 17 27 1016.4 - 0.0 - - - - - - -
22/06:05pm 15.7 SW 17 27 1016.1 - 0.0 - - - - - - -
22/06:00pm 15.7 SW 18 27 1016.1 - 0.0 - - - - - - -
22/05:30pm 15.5 SW 17 27 1015.7 - 0.0 - - - - - - -
22/05:16pm 15.8 SW 18 29 1015.4 - 0.0 - - - - - - -
22/05:00pm 16.0 SW 15 23 1016.0 - 0.0 - - - - - - -
22/04:30pm 16.5 SW 15 26 1015.8 - 0.0 - - - - - - -
22/04:00pm 17.0 SW 18 30 1015.4 - 0.0 - - - - - - -
22/03:30pm 17.2 SW 20 31 1014.5 - 0.0 - - - - - - -
22/03:00pm 17.4 SW 17 27 1014.7 - 0.0 - - - - - - -
22/02:30pm 17.7 SW 20 32 1014.5 - 0.0 - - - - - - -
22/02:00pm 17.8 SW 18 30 1014.5 - 0.0 - - - - - - -
22/01:37pm 17.6 SW 19 31 1014.6 - 0.0 - - - - - - -
22/01:30pm 17.6 WSW 19 27 1014.6 - 0.0 - - - - - - -
22/01:00pm 17.6 WSW 19 29 1014.6 - 0.0 - - - - - - -
22/12:32pm 17.9 WSW 16 26 1015.4 - 0.0 - - - - - - -
22/12:30pm 17.6 WSW 17 26 1015.3 - 0.0 - - - - - - -
22/12:10pm 17.4 WSW 16 29 1015.4 - 0.0 - - - - - - -
22/12:00pm 17.4 WSW 19 26 1015.6 - 0.0 - - - - - - -
22/11:39am 17.0 WSW 16 27 1015.8 - 0.0 - - - - - - -
22/11:30am 16.9 WSW 16 23 1016.1 - 0.0 - - - - - - -
22/11:05am 16.9 WSW 18 28 1016.2 - 0.0 - - - - - - -
22/11:00am 16.7 SW 19 28 1016.2 - 0.0 - - - - - - -
22/10:37am 17.0 SW 15 25 1016.7 - 0.0 - - - - - - -
22/10:30am 16.9 SW 18 25 1016.8 - 0.0 - - - - - - -
22/10:00am 17.1 SW 15 25 1016.9 - 0.0 - - - - - - -
22/09:52am 16.9 WSW 15 25 1016.9 - 0.0 - - - - - - -
22/09:30am 16.2 WSW 13 18 1017.0 - 0.0 - - - - - - -
22/09:00am 16.4 WSW 13 18 1016.9 - 6.8 - - - - - - -
22/08:30am 16.5 WSW 12 16 1016.5 - 6.8 - - - - - - -
22/08:00am 16.2 SW 14 19 1016.3 - 6.8 - - - - - - -
22/07:30am 15.9 SW 13 18 1016.1 - 6.8 - - - - - - -
22/07:00am 16.0 SW 11 16 1016.2 - 6.8 - - - - - - -
22/06:30am 15.9 SW 12 18 1015.8 - 6.8 - - - - - - -
22/06:00am 15.9 SW 13 19 1015.4 - 6.8 - - - - - - -
22/05:30am 16.1 WSW 11 15 1015.3 - 6.8 - - - - - - -
22/05:00am 16.4 WSW 11 15 1015.1 - 6.8 - - - - - - -
22/04:30am 16.6 W 10 12 1015.2 - 6.8 - - - - - - -
22/04:00am 16.4 W 10 14 1015.4 - 6.8 - - - - - - -
22/03:30am 16.3 W 9 13 1015.6 - 6.8 - - - - - - -
22/03:00am 16.2 W 9 12 1015.3 - 6.8 Recent precip. - - - - - -
22/02:30am 16.4 W 9 13 1015.7 - 6.6 - - - - - - -
22/02:00am 16.5 W 10 13 1015.7 - 6.0 - - - - - - -
22/01:30am 16.6 W 7 10 1016.1 - 5.8 - - - - - - -
22/01:00am 17.0 WSW 7 10 1016.5 - 5.4 - - - - - - -
22/12:30am 17.4 W 8 12 1016.8 - 5.0 - - - - - - -
22/12:00am 18.7 SW 6 7 1016.7 - 4.2 Rain - - - - - -
 
Date/Time
EST
Temp

°C
Wind Pressure Rain
since 9am
mm
Weather Cloud Vis
km
Sea
Height
m
Swell
Dir
 
Speed
knots
Gust
knots
hPa Trend Height
m
Period
s
Dir
21/11:30pm 19.0 SSW 7 8 1017.0 - 3.6 - - - - - - -
21/11:00pm 18.9 SW 7 9 1017.1 - 3.6 - - - - - - -
21/10:30pm 19.1 SSW 7 8 1017.2 - 3.6 - - - - - - -
21/10:00pm 19.7 S 5 7 1017.2 - 3.6 - - - - - - -
21/09:30pm 19.8 SSE 7 9 1017.5 - 3.6 - - - - - - -
21/09:00pm 19.8 SE 8 10 1017.3 - 3.6 - - - - - - -
21/08:30pm 19.7 SE 10 12 1017.2 - 3.6 - - - - - - -
21/08:00pm 19.6 SE 12 15 1017.4 - 3.6 - - - - - - -
21/07:30pm 20.0 SSW 11 14 1017.5 - 3.6 - - - - - - -
21/07:00pm 19.3 SW 10 14 1017.4 - 3.6 - - - - - - -
21/06:30pm 19.2 SW 11 15 1017.2 - 3.6 - - - - - - -
21/06:00pm 19.3 SW 11 16 1017.0 - 3.6 Recent precip. - - - - - -
21/05:30pm 20.0 S 7 11 1016.3 - 3.6 - - - - - - -
21/05:00pm 20.4 SW 12 17 1016.2 - 2.2 - - - - - - -
21/04:30pm 22.0 WNW 2 4 1016.0 - 0.0 - - - - - - -
21/04:00pm 22.4 NNW 4 6 1015.7 - 0.0 - - - - - - -
21/03:30pm 22.6 NNW 4 5 1015.7 - 0.0 - - - - - - -
21/03:00pm 22.8 NW 5 7 1015.5 - 0.0 - - - - - - -
21/02:30pm 23.3 NW 7 9 1015.3 - 0.0 - - - - - - -
21/02:00pm 23.3 NW 9 11 1015.4 - 0.0 - - - - - - -
21/01:30pm 22.6 NW 10 13 1015.7 - 0.0 - - - - - - -
21/01:00pm 22.8 NW 10 13 1016.0 - 0.0 - - - - - - -
21/12:30pm 23.0 NW 13 17 1016.4 - 0.0 - - - - - - -
21/12:00pm 22.5 NW 13 16 1017.1 - 0.0 - - - - - - -
21/11:30am 23.0 NW 11 16 1017.6 - 0.0 - - - - - - -
21/11:00am 21.8 W 13 16 1018.2 - 0.0 - - - - - - -
21/10:30am 22.0 WNW 11 15 1018.6 - 0.0 - - - - - - -
21/10:00am 21.9 NW 9 15 1018.7 - 0.0 - - - - - - -
21/09:30am 22.0 WNW 9 14 1018.9 - 0.0 - - - - - - -
21/09:00am 21.5 NW 12 15 1019.0 - 0.0 - - - - - - -
21/08:30am 20.6 WNW 11 15 1019.0 - 0.0 - - - - - - -
21/08:00am 20.7 NW 10 14 1018.9 - 0.0 - - - - - - -
21/07:30am 21.2 NW 10 13 1018.7 - 0.0 - - - - - - -
21/07:00am 20.7 NW 10 14 1018.2 - 0.0 - - - - - - -
21/06:30am 20.4 NW 11 15 1018.0 - 0.0 - - - - - - -
21/06:00am 20.1 NW 10 14 1017.5 - 0.0 - - - - - - -
21/05:30am 20.1 NW 10 13 1017.5 - 0.0 - - - - - - -
21/05:00am 20.3 NW 10 13 1017.6 - 0.0 - - - - - - -
21/04:30am 20.4 NW 10 13 1017.6 - 0.0 - - - - - - -
21/04:00am 20.4 NW 9 12 1017.6 - 0.0 - - - - - - -
21/03:30am 20.5 NW 9 13 1017.5 - 0.0 - - - - - - -
21/03:00am 20.6 NNW 10 14 1017.4 - 0.0 - - - - - - -
21/02:30am 20.8 NNW 10 13 1017.7 - 0.0 - - - - - - -
21/02:00am 20.7 NNW 10 12 1017.7 - 0.0 - - - - - - -
21/01:30am 20.9 NW 8 11 1018.1 - 0.0 - - - - - - -
21/01:00am 21.1 NW 11 13 1018.4 - 0.0 - - - - - - -
21/12:30am 21.3 N 13 15 1018.5 - 0.0 - - - - - - -
21/12:00am 21.3 NNW 10 14 1018.9 - 0.0 - - - - - - -
 
Date/Time
EST
Temp

°C
Wind Pressure Rain
since 9am
mm
Weather Cloud Vis
km
Sea
Height
m
Swell
Dir
 
Speed
knots
Gust
knots
hPa Trend Height
m
Period
s
Dir
20/11:30pm 21.3 NNW 11 15 1018.8 - 0.0 - - - - - - -
20/11:00pm 21.3 NNW 11 14 1018.8 - 0.0 - - - - - - -
20/10:30pm 21.3 NNW 11 14 1019.2 - 0.0 - - - - - - -
20/10:00pm 21.3 N 12 15 1019.0 - 0.0 - - - - - - -
20/09:30pm 21.2 N 14 16 1019.0 - 0.0 - - - - - - -
20/09:00pm 21.2 N 12 15 1019.2 - 0.0 - - - - - - -
20/08:30pm 21.1 N 12 15 1019.0 - 0.0 - - - - - - -
20/08:00pm 21.2 N 12 14 1018.9 - 0.0 - - - - - - -
20/07:30pm 21.1 N 10 11 1018.7 - 0.0 - - - - - - -
20/07:00pm 20.8 N 9 10 1018.7 - 0.0 - - - - - - -
20/06:30pm 20.9 N 7 9 1018.7 - 0.0 - - - - - - -
20/06:00pm 20.6 NNE 7 10 1018.4 - 0.0 - - - - - - -
20/05:30pm 20.7 NNE 7 8 1018.3 - 0.0 - - - - - - -
20/05:00pm 20.6 NNE 7 9 1018.0 - 0.0 - - - - - - -
20/04:30pm 20.8 NE 7 8 1018.0 - 0.0 - - - - - - -
20/04:00pm 21.1 NE 6 8 1018.0 - 0.0 - - - - - - -
20/03:30pm 21.3 NE 6 7 1017.9 - 0.0 - - - - - - -
20/03:00pm 21.9 NNE 5 25 1017.8 - 0.0 - - - - - - -
20/02:30pm 22.4 N 5 7 1017.9 - 0.0 - - - - - - -
20/02:00pm 22.3 NNW 5 6 1017.8 - 0.0 - - - - - - -
20/01:30pm 21.7 N 5 7 1018.1 - 0.0 - - - - - - -
20/01:00pm 22.5 NW 5 7 1018.3 - 0.0 - - - - - - -
20/12:30pm 22.8 NNW 6 8 1018.7 - 0.0 - - - - - - -
20/12:00pm 22.5 NW 7 9 1019.2 - 0.0 - - - - - - -
20/11:30am 22.4 NW 7 9 1019.4 - 0.0 - - - - - - -
20/11:00am 22.4 NW 6 8 1020.0 - 0.0 - - - - - - -
20/10:30am 22.2 W 5 6 1020.4 - 0.0 - - - - - - -
20/10:00am 22.1 WSW 3 4 1020.7 - 0.0 - - - - - - -
20/09:30am 21.1 WSW 6 9 1020.7 - 0.0 - - - - - - -
20/09:00am 20.6 WSW 7 11 1020.5 - 0.0 - - - - - - -
20/08:30am 19.6 W 8 10 1020.3 - 0.0 - - - - - - -
20/08:00am 19.0 W 10 12 1020.0 - 0.0 - - - - - - -
20/07:30am 18.4 WSW 11 12 1020.0 - 0.0 - - - - - - -
20/07:00am 18.3 WSW 11 15 1020.0 - 0.0 - - - - - - -
20/06:30am 18.4 W 11 12 1019.5 - 0.0 - - - - - - -
20/06:00am 18.5 W 10 11 1019.1 - 0.0 - - - - - - -
20/05:30am 18.8 W 9 11 1018.9 - 0.0 - - - - - - -

Other Formats:

Comma delimited format used in spreadsheet applications
http://www.bom.gov.au/fwo/IDQ60701/IDQ60701.94594.axf

JavaScript Object Notation format (JSON) in row-major order
http://www.bom.gov.au/fwo/IDQ60701/IDQ60701.94594.json